Time;durP1;ratioP1;P1;durP2;ratioP2;P2;SDS_P1;SDS_P2;PMS_P1;PMS_P2;Temp;Humidity;BMP_temperature;BMP_pressure;BME280_temperature;BME280_humidity;BME280_pressure;Samples;Min_cycle;Max_cycle;Signal;HPM_P1;HPM_P2
2022/01/15 00:00:15;;;;;;;;;;;;;;;8.11;51.54;99960.63;4476107;32;34993;-86
2022/01/15 00:02:42;;;;;;;;;;;;;;;8.21;50.94;99969.56;4483004;32;34293;-86
2022/01/15 00:05:10;;;;;;;;;;;;;;;7.95;51.73;99973.81;4482612;32;35431;-85
2022/01/15 00:07:38;;;;;;;;;;;;;;;7.12;54.05;99972.38;4481238;32;33665;-85
2022/01/15 00:10:06;;;;;;;;;;;;;;;7.05;54.73;99977.31;4482742;32;34307;-84
2022/01/15 00:12:40;;;;;;;;;;;;;;;7.88;52.63;99971.81;4482336;32;34139;-87
2022/01/15 00:15:11;;;;;;;;;;;;;;;7.45;53.42;99983.13;4482015;32;35046;-85
2022/01/15 00:17:48;;;;;;;;;;;;;;;6.98;55.27;99988.22;4482018;32;34316;-86
2022/01/15 00:20:23;;;;;;;;;;;;;;;7.29;54.21;99982.56;4481035;32;32532;-87
2022/01/15 00:22:52;;;;;;;;;;;;;;;8.15;51.48;99980.59;4481509;32;34448;-86
2022/01/15 00:25:20;;;;;;;;;;;;;;;7.79;52.67;99980.13;4481327;32;34446;-87
2022/01/15 00:27:48;;;;;;;;;;;;;;;7.17;54.60;99987.25;4480614;32;32933;-87
2022/01/15 00:30:16;;;;;;;;;;;;;;;7.32;53.88;99999.84;4482376;32;34727;-86
2022/01/15 00:32:43;;;;;;;;;;;;;;;7.20;54.58;100000.25;4481022;32;33635;-85
2022/01/15 00:35:12;;;;;;;;;;;;;;;6.31;56.94;100000.84;4481694;32;34018;-87
2022/01/15 00:37:40;;;;;;;;;;;;;;;6.54;56.33;100001.84;4482051;32;33080;-87
2022/01/15 00:40:09;;;;;;;;;;;;;;;6.39;57.33;100003.75;4481787;32;33968;-86
2022/01/15 00:42:40;;;;;;;;;;;;;;;7.89;53.03;99994.25;4467860;32;34213;-87
2022/01/15 00:45:12;;;;;;;;;;;;;;;7.60;53.81;99993.16;4482216;32;34308;-86
2022/01/15 00:47:39;;;;;;;;;;;;;;;7.13;54.52;100000.84;4481089;32;33247;-87
2022/01/15 00:50:07;;;;;;;;;;;;;;;7.66;53.47;100001.16;4480631;32;35116;-87
2022/01/15 00:52:34;;;;;;;;;;;;;;;7.34;54.61;100005.06;4482664;32;34513;-85
2022/01/15 00:55:02;;;;;;;;;;;;;;;6.96;55.44;100012.16;4484356;32;34616;-84
2022/01/15 00:57:29;;;;;;;;;;;;;;;7.16;54.66;100018.09;4483971;32;33456;-86
2022/01/15 00:59:56;;;;;;;;;;;;;;;7.52;53.79;100023.84;4476959;32;34547;-87
2022/01/15 01:02:24;;;;;;;;;;;;;;;6.86;55.38;100036.69;4482088;32;34268;-85
2022/01/15 01:04:52;;;;;;;;;;;;;;;7.08;54.97;100033.28;4484675;32;34367;-86
2022/01/15 01:07:20;;;;;;;;;;;;;;;6.57;56.75;100043.19;4483627;32;33361;-87
2022/01/15 01:23:10;;;;;;;;;;;;;;;7.28;53.99;100053.03;4480761;32;34408;-85
2022/01/15 01:25:41;;;;;;;;;;;;;;;8.05;52.40;100050.78;4482584;32;32680;-85
2022/01/15 01:28:21;;;;;;;;;;;;;;;7.32;54.37;100047.16;4483561;32;33781;-87
2022/01/15 01:30:55;;;;;;;;;;;;;;;6.93;55.34;100049.03;4483358;32;34801;-85
2022/01/15 01:36:05;;;;;;;;;;;;;;;6.82;55.85;100061.47;4483865;32;35005;-85
2022/01/15 01:38:40;;;;;;;;;;;;;;;6.41;57.47;100062.25;4482440;32;33551;-85
2022/01/15 01:41:14;;;;;;;;;;;;;;;7.08;55.39;100061.63;4483711;32;33593;-84
2022/01/15 01:43:59;;;;;;;;;;;;;;;6.11;58.27;100056.63;4482612;32;34242;-86
2022/01/15 01:48:55;;;;;;;;;;;;;;;6.13;58.65;100038.66;4482231;32;33557;-87
2022/01/15 01:51:23;;;;;;;;;;;;;;;5.82;59.10;100038.13;4482676;32;35630;-84
2022/01/15 01:53:51;;;;;;;;;;;;;;;6.18;58.93;100032.94;4482589;32;33841;-85
2022/01/15 01:56:19;;;;;;;;;;;;;;;6.78;56.32;100018.34;4483594;32;34217;-87
2022/01/15 01:58:46;;;;;;;;;;;;;;;5.87;59.00;100028.03;4483438;32;33725;-84
2022/01/15 02:01:13;;;;;;;;;;;;;;;6.44;57.98;100030.59;4481783;32;33934;-84
2022/01/15 02:03:41;;;;;;;;;;;;;;;7.06;55.67;100040.06;4483390;32;34251;-84
2022/01/15 02:06:08;;;;;;;;;;;;;;;7.27;54.76;100043.53;4483403;32;34413;-84
2022/01/15 02:08:36;;;;;;;;;;;;;;;6.88;55.59;100050.50;4482120;32;33752;-86
2022/01/15 02:11:05;;;;;;;;;;;;;;;7.66;53.72;100035.56;4483817;32;33135;-84
2022/01/15 02:13:33;;;;;;;;;;;;;;;7.01;55.09;100042.47;4474382;32;32721;-85
2022/01/15 02:16:00;;;;;;;;;;;;;;;7.59;53.29;100035.28;4481421;32;34541;-85
2022/01/15 02:18:28;;;;;;;;;;;;;;;7.30;54.49;100048.78;4481983;32;34338;-85
2022/01/15 02:23:32;;;;;;;;;;;;;;;8.05;52.22;100037.88;4481642;32;34186;-85
2022/01/15 02:23:50;;;;;;;;;;;;;;;8.21;51.51;100037.59;4483792;32;34222;-85
2022/01/15 02:26:25;;;;;;;;;;;;;;;7.83;52.66;100043.94;4483281;32;34346;-85
2022/01/15 02:28:55;;;;;;;;;;;;;;;7.85;52.58;100033.69;4482050;32;33613;-86
2022/01/15 02:31:22;;;;;;;;;;;;;;;8.67;49.92;100035.78;4483182;32;34116;-84
2022/01/15 02:33:51;;;;;;;;;;;;;;;8.34;50.62;100038.94;4481940;32;33550;-86
2022/01/15 02:36:34;;;;;;;;;;;;;;;7.26;53.91;100044.31;4483669;32;35225;-85
2022/01/15 02:39:03;;;;;;;;;;;;;;;8.62;50.32;100047.69;4483373;32;34379;-85
2022/01/15 02:41:37;;;;;;;;;;;;;;;9.13;48.86;100029.56;4482036;32;34134;-85
2022/01/15 02:44:09;;;;;;;;;;;;;;;8.76;49.74;100042.16;4482921;32;35315;-84
2022/01/15 02:48:00;;;;;;;;;;;;;;;8.47;50.01;100041.16;4479730;32;34010;-85
2022/01/15 02:49:24;;;;;;;;;;;;;;;8.58;49.84;100028.62;4483361;32;34508;-84
2022/01/15 02:51:51;;;;;;;;;;;;;;;7.89;51.49;100033.84;4479405;32;35131;-85
2022/01/15 02:54:20;;;;;;;;;;;;;;;7.97;51.73;100035.03;4478368;32;34188;-85
2022/01/15 02:56:47;;;;;;;;;;;;;;;8.50;50.29;100032.63;4483048;32;35293;-86
2022/01/15 02:59:19;;;;;;;;;;;;;;;7.69;52.64;100027.06;4476994;32;33609;-86
2022/01/15 03:01:46;;;;;;;;;;;;;;;8.76;49.45;100031.81;4473292;32;34874;-85
2022/01/15 03:04:13;;;;;;;;;;;;;;;7.23;53.17;100026.16;4480697;32;34578;-87
2022/01/15 03:06:41;;;;;;;;;;;;;;;7.45;52.98;100027.00;4481623;32;35107;-86
2022/01/15 03:09:08;;;;;;;;;;;;;;;8.04;50.90;100018.06;4468768;32;32801;-85
2022/01/15 03:11:35;;;;;;;;;;;;;;;8.18;50.81;100024.59;4480482;32;33758;-87
2022/01/15 03:14:02;;;;;;;;;;;;;;;8.33;50.41;100018.19;4482110;31;33732;-87
2022/01/15 03:16:29;;;;;;;;;;;;;;;9.03;47.80;100012.88;4481442;32;35145;-85
2022/01/15 03:18:57;;;;;;;;;;;;;;;8.70;48.92;100016.09;4482173;32;32165;-87
2022/01/15 03:21:25;;;;;;;;;;;;;;;8.75;48.73;100009.41;4482118;32;33694;-84
2022/01/15 03:23:52;;;;;;;;;;;;;;;8.94;47.97;100015.16;4483045;32;34333;-85
2022/01/15 03:26:19;;;;;;;;;;;;;;;8.03;50.53;100014.59;4482603;32;34482;-86
2022/01/15 03:28:46;;;;;;;;;;;;;;;8.03;50.68;100013.69;4482620;32;34525;-87
2022/01/15 03:31:14;;;;;;;;;;;;;;;8.17;50.06;100021.94;4482605;32;34001;-87
2022/01/15 03:33:41;;;;;;;;;;;;;;;6.63;54.62;100035.72;4482355;31;34395;-86
2022/01/15 03:36:08;;;;;;;;;;;;;;;5.71;57.62;100033.31;4480794;32;33899;-87
2022/01/15 03:38:35;;;;;;;;;;;;;;;6.31;56.15;100037.78;4478658;32;34626;-85
2022/01/15 03:41:03;;;;;;;;;;;;;;;7.84;51.76;100034.50;4477671;32;34161;-86
2022/01/15 03:43:30;;;;;;;;;;;;;;;7.84;51.68;100031.91;4482163;32;34268;-85
2022/01/15 03:45:57;;;;;;;;;;;;;;;7.77;51.92;100028.25;4477704;32;35784;-84
2022/01/15 03:48:25;;;;;;;;;;;;;;;6.70;54.97;100037.72;4482019;32;33396;-84
2022/01/15 03:50:53;;;;;;;;;;;;;;;6.11;56.60;100036.03;4482650;32;35005;-86
2022/01/15 03:53:21;;;;;;;;;;;;;;;6.40;56.23;100047.59;4482391;32;34272;-85
2022/01/15 03:55:49;;;;;;;;;;;;;;;6.76;55.28;100058.59;4482116;32;34154;-87
2022/01/15 03:58:16;;;;;;;;;;;;;;;7.33;52.64;100050.63;4481350;32;33626;-87
2022/01/15 04:00:44;;;;;;;;;;;;;;;7.43;52.62;100064.78;4481678;32;34042;-84
2022/01/15 04:03:11;;;;;;;;;;;;;;;7.97;51.35;100060.84;4482285;32;34230;-85
2022/01/15 04:05:38;;;;;;;;;;;;;;;7.06;52.69;100078.75;4481061;32;34310;-86
2022/01/15 04:08:07;;;;;;;;;;;;;;;7.72;52.10;100079.66;4482494;32;34025;-86
2022/01/15 04:10:34;;;;;;;;;;;;;;;8.49;49.63;100080.87;4481150;32;33887;-84
2022/01/15 04:13:01;;;;;;;;;;;;;;;9.06;47.88;100088.00;4477545;32;35026;-84
2022/01/15 04:15:29;;;;;;;;;;;;;;;8.66;47.68;100089.19;4470163;32;34308;-85
2022/01/15 04:17:56;;;;;;;;;;;;;;;8.96;46.36;100089.38;4482207;32;32927;-87
2022/01/15 04:20:23;;;;;;;;;;;;;;;9.70;44.35;100079.72;4482513;32;33447;-84
2022/01/15 04:22:53;;;;;;;;;;;;;;;8.85;45.73;100087.25;4482551;32;34003;-84
2022/01/15 04:25:21;;;;;;;;;;;;;;;8.76;46.28;100088.72;4480338;32;35035;-87
2022/01/15 04:27:48;;;;;;;;;;;;;;;9.12;46.30;100074.37;4480229;32;33457;-85
2022/01/15 04:30:16;;;;;;;;;;;;;;;9.24;46.20;100085.13;4482493;32;34005;-85
2022/01/15 04:32:43;;;;;;;;;;;;;;;8.54;47.72;100091.37;4482414;31;34006;-85
2022/01/15 04:35:11;;;;;;;;;;;;;;;8.80;46.84;100084.53;4482705;32;35308;-87
2022/01/15 04:37:42;;;;;;;;;;;;;;;8.92;46.86;100087.53;4482449;32;32378;-86
2022/01/15 04:40:10;;;;;;;;;;;;;;;7.53;51.44;100077.19;4482115;32;35107;-84
2022/01/15 04:42:37;;;;;;;;;;;;;;;8.12;49.63;100068.28;4482478;32;34268;-87
2022/01/15 04:45:07;;;;;;;;;;;;;;;7.45;51.89;100076.03;4481549;32;34451;-86
2022/01/15 04:47:35;;;;;;;;;;;;;;;6.62;54.06;100067.44;4482384;32;33568;-85
2022/01/15 04:50:03;;;;;;;;;;;;;;;6.97;53.73;100075.78;4476935;32;34057;-85
2022/01/15 04:52:30;;;;;;;;;;;;;;;6.31;55.35;100076.41;4480873;32;34344;-86
2022/01/15 04:54:58;;;;;;;;;;;;;;;5.25;58.45;100087.72;4482227;32;33399;-84
2022/01/15 04:57:25;;;;;;;;;;;;;;;6.19;56.24;100083.59;4482877;32;33264;-87
2022/01/15 04:59:52;;;;;;;;;;;;;;;6.03;56.82;100089.75;4481802;32;33897;-87
2022/01/15 05:02:19;;;;;;;;;;;;;;;5.90;57.06;100083.94;4481891;32;34392;-86
2022/01/15 05:04:47;;;;;;;;;;;;;;;6.30;56.10;100094.37;4482486;32;33991;-86
2022/01/15 05:07:15;;;;;;;;;;;;;;;5.80;57.32;100090.38;4479580;32;77763;-85
2022/01/15 05:09:44;;;;;;;;;;;;;;;5.05;59.99;100090.22;4481647;32;35119;-86
2022/01/15 05:12:25;;;;;;;;;;;;;;;5.66;58.22;100087.13;4466839;32;34041;-86
2022/01/15 05:14:52;;;;;;;;;;;;;;;6.70;55.18;100094.41;4479153;32;34991;-86
2022/01/15 05:17:20;;;;;;;;;;;;;;;6.07;56.30;100093.34;4481510;32;33299;-86
2022/01/15 05:19:47;;;;;;;;;;;;;;;5.85;57.46;100087.19;4481859;32;33861;-85
2022/01/15 05:22:14;;;;;;;;;;;;;;;5.90;57.49;100097.69;4482290;32;33639;-87
2022/01/15 05:24:42;;;;;;;;;;;;;;;5.44;58.78;100092.94;4481788;32;35376;-87
2022/01/15 05:27:09;;;;;;;;;;;;;;;5.33;58.79;100097.56;4481594;32;33471;-86
2022/01/15 05:29:36;;;;;;;;;;;;;;;5.61;58.60;100086.06;4481710;32;33606;-86
2022/01/15 05:32:03;;;;;;;;;;;;;;;5.78;57.30;100092.84;4481419;32;34134;-87
2022/01/15 05:34:34;;;;;;;;;;;;;;;5.34;59.06;100094.22;4480668;32;34422;-86
2022/01/15 05:37:03;;;;;;;;;;;;;;;5.94;57.22;100089.31;4481967;32;34748;-88
2022/01/15 05:39:30;;;;;;;;;;;;;;;6.30;56.12;100094.37;4483083;32;34617;-85
2022/01/15 05:41:57;;;;;;;;;;;;;;;6.94;53.83;100093.72;4484131;32;34842;-86
2022/01/15 05:44:25;;;;;;;;;;;;;;;6.56;54.89;100101.56;4484452;32;34370;-85
2022/01/15 05:46:52;;;;;;;;;;;;;;;6.25;55.91;100116.44;4483348;32;34281;-85
2022/01/15 05:49:20;;;;;;;;;;;;;;;4.55;61.01;100121.06;4481640;32;35013;-84
2022/01/15 05:51:47;;;;;;;;;;;;;;;4.94;59.96;100121.31;4483879;32;34128;-85
2022/01/15 05:54:14;;;;;;;;;;;;;;;5.05;59.66;100126.19;4484048;32;34024;-85
2022/01/15 05:56:42;;;;;;;;;;;;;;;6.12;56.21;100127.91;4482693;32;33815;-87
2022/01/15 05:59:09;;;;;;;;;;;;;;;7.01;53.84;100130.12;4483821;32;34214;-88
2022/01/15 06:01:36;;;;;;;;;;;;;;;6.38;54.66;100118.78;4482388;32;34230;-88
2022/01/15 06:04:04;;;;;;;;;;;;;;;5.39;58.12;100126.97;4484038;32;34184;-86
2022/01/15 06:06:31;;;;;;;;;;;;;;;5.82;56.66;100124.75;4482622;32;33786;-86
2022/01/15 06:08:59;;;;;;;;;;;;;;;6.52;54.90;100130.59;4483062;32;34132;-85
2022/01/15 06:11:27;;;;;;;;;;;;;;;6.40;54.76;100131.72;4482246;32;35081;-87
2022/01/15 06:13:54;;;;;;;;;;;;;;;6.20;55.62;100139.44;4483547;32;34845;-86
2022/01/15 06:16:22;;;;;;;;;;;;;;;6.15;55.69;100140.91;4483302;32;32874;-88
2022/01/15 06:18:49;;;;;;;;;;;;;;;5.94;56.13;100147.62;4482218;32;33291;-87
2022/01/15 06:21:16;;;;;;;;;;;;;;;6.36;55.11;100148.72;4483339;32;33847;-88
2022/01/15 06:23:44;;;;;;;;;;;;;;;6.68;54.38;100150.19;4483717;32;34201;-87
2022/01/15 06:26:11;;;;;;;;;;;;;;;6.85;53.29;100152.59;4483492;32;33745;-88
2022/01/15 06:28:39;;;;;;;;;;;;;;;7.05;52.82;100141.47;4480759;32;34353;-88
2022/01/15 06:31:06;;;;;;;;;;;;;;;5.50;56.83;100151.53;4479260;32;35181;-87
2022/01/15 06:33:33;;;;;;;;;;;;;;;5.43;57.35;100157.19;4483419;31;35233;-88
2022/01/15 06:36:02;;;;;;;;;;;;;;;6.16;55.14;100149.53;4483357;32;34327;-88
2022/01/15 06:38:30;;;;;;;;;;;;;;;6.40;54.69;100149.75;4483125;32;34059;-88
2022/01/15 06:40:57;;;;;;;;;;;;;;;6.05;55.59;100152.47;4482681;32;33841;-88
2022/01/15 06:43:25;;;;;;;;;;;;;;;6.38;54.55;100159.13;4483855;32;35339;-87
2022/01/15 06:45:52;;;;;;;;;;;;;;;5.21;58.15;100160.38;4483466;32;33358;-87
2022/01/15 06:48:19;;;;;;;;;;;;;;;5.20;58.02;100156.91;4483398;32;35103;-86
2022/01/15 06:50:47;;;;;;;;;;;;;;;5.96;56.23;100164.06;4482223;32;34467;-86
2022/01/15 06:53:14;;;;;;;;;;;;;;;5.71;57.24;100167.09;4468194;32;35260;-87
2022/01/15 06:55:41;;;;;;;;;;;;;;;6.52;54.35;100156.34;4468757;32;33571;-90
2022/01/15 06:58:08;;;;;;;;;;;;;;;6.91;53.34;100158.03;4483422;32;35109;-90
2022/01/15 07:00:36;;;;;;;;;;;;;;;7.67;50.80;100157.75;4482933;32;35287;-89
2022/01/15 07:03:03;;;;;;;;;;;;;;;7.07;52.38;100165.59;4483044;32;34272;-89
2022/01/15 07:05:30;;;;;;;;;;;;;;;8.10;49.16;100152.56;4483295;32;33115;-89
2022/01/15 07:07:58;;;;;;;;;;;;;;;7.32;51.89;100162.37;4483530;32;33968;-88
2022/01/15 07:10:25;;;;;;;;;;;;;;;7.70;50.56;100161.34;4483202;32;34467;-86
2022/01/15 07:12:52;;;;;;;;;;;;;;;6.98;52.20;100163.50;4482715;32;35269;-86
2022/01/15 07:15:19;;;;;;;;;;;;;;;6.88;52.59;100169.06;4481900;32;33716;-85
2022/01/15 07:17:48;;;;;;;;;;;;;;;7.34;51.60;100170.16;4482970;32;35091;-87
2022/01/15 07:20:17;;;;;;;;;;;;;;;6.56;53.23;100172.81;4481773;32;33902;-85
2022/01/15 07:22:44;;;;;;;;;;;;;;;6.18;54.37;100177.13;4480913;32;34107;-86
2022/01/15 07:25:12;;;;;;;;;;;;;;;6.69;53.20;100176.81;4483162;32;33316;-87
2022/01/15 07:27:39;;;;;;;;;;;;;;;7.13;52.17;100177.88;4482356;32;34797;-86
2022/01/15 07:30:07;;;;;;;;;;;;;;;6.34;54.11;100174.41;4482047;32;35190;-86
2022/01/15 07:32:35;;;;;;;;;;;;;;;6.33;54.20;100182.09;4483085;32;35272;-86
2022/01/15 07:35:02;;;;;;;;;;;;;;;6.15;54.32;100176.97;4482120;32;33424;-86
2022/01/15 07:37:31;;;;;;;;;;;;;;;6.46;53.91;100173.22;4483474;32;33898;-84
2022/01/15 07:39:59;;;;;;;;;;;;;;;5.98;55.49;100177.84;4481548;32;35361;-85
2022/01/15 07:42:28;;;;;;;;;;;;;;;5.17;57.63;100177.31;4470802;32;34484;-85
2022/01/15 07:44:55;;;;;;;;;;;;;;;6.25;54.45;100176.59;4468211;32;33219;-86
2022/01/15 07:47:23;;;;;;;;;;;;;;;6.25;54.45;100168.88;4482961;32;35096;-87
2022/01/15 07:49:50;;;;;;;;;;;;;;;5.73;55.98;100178.38;4475584;32;35271;-86
2022/01/15 07:52:19;;;;;;;;;;;;;;;5.80;55.66;100181.31;4481177;32;35244;-86
2022/01/15 07:54:46;;;;;;;;;;;;;;;5.48;56.51;100187.44;4482790;32;33508;-87
2022/01/15 07:57:18;;;;;;;;;;;;;;;5.65;56.56;100193.44;4483141;32;35046;-86
2022/01/15 07:59:46;;;;;;;;;;;;;;;5.55;56.26;100192.09;4483210;32;34465;-87
2022/01/15 08:02:13;;;;;;;;;;;;;;;5.63;56.14;100192.47;4481965;32;33893;-87
2022/01/15 08:04:41;;;;;;;;;;;;;;;4.91;58.39;100209.41;4482011;32;34598;-86
2022/01/15 08:07:11;;;;;;;;;;;;;;;5.26;57.70;100213.78;4483001;32;34400;-86
2022/01/15 08:09:38;;;;;;;;;;;;;;;5.03;57.97;100209.16;4483292;32;35217;-83
2022/01/15 08:12:08;;;;;;;;;;;;;;;5.33;56.86;100231.28;4482612;32;34193;-87
2022/01/15 08:14:36;;;;;;;;;;;;;;;5.76;55.43;100220.56;4482562;32;32760;-87
2022/01/15 08:17:03;;;;;;;;;;;;;;;5.68;56.00;100224.44;4482670;32;34165;-84
2022/01/15 08:19:31;;;;;;;;;;;;;;;5.33;56.62;100214.97;4482583;32;34236;-86
2022/01/15 08:21:58;;;;;;;;;;;;;;;5.55;56.01;100212.66;4482540;32;33886;-84
2022/01/15 08:24:25;;;;;;;;;;;;;;;5.70;55.38;100217.69;4483205;32;34435;-87
2022/01/15 08:26:53;;;;;;;;;;;;;;;6.22;53.78;100212.50;4482836;32;34381;-85
2022/01/15 08:29:20;;;;;;;;;;;;;;;5.37;56.12;100222.91;4482502;32;34874;-84
2022/01/15 08:31:47;;;;;;;;;;;;;;;5.51;55.71;100226.19;4481724;31;34291;-84
2022/01/15 08:34:14;;;;;;;;;;;;;;;6.08;54.65;100232.44;4482345;32;34644;-87
2022/01/15 08:36:42;;;;;;;;;;;;;;;5.79;55.26;100230.97;4482783;32;34201;-85
2022/01/15 08:39:09;;;;;;;;;;;;;;;5.71;55.41;100226.28;4482828;32;34394;-85
2022/01/15 08:41:36;;;;;;;;;;;;;;;6.11;53.84;100225.66;4481890;32;33863;-84
2022/01/15 08:44:06;;;;;;;;;;;;;;;7.35;50.58;100228.66;4481944;32;33987;-83
2022/01/15 08:46:33;;;;;;;;;;;;;;;5.92;53.83;100229.94;4482672;32;33947;-88
2022/01/15 08:49:01;;;;;;;;;;;;;;;6.78;51.90;100224.50;4478567;32;34884;-85
2022/01/15 08:51:29;;;;;;;;;;;;;;;6.36;52.88;100227.69;4470746;32;34400;-84
2022/01/15 08:53:56;;;;;;;;;;;;;;;6.10;53.91;100235.09;4475802;32;33614;-82
2022/01/15 08:56:24;;;;;;;;;;;;;;;6.50;52.63;100236.94;4479048;32;34155;-83
2022/01/15 08:58:51;;;;;;;;;;;;;;;6.56;52.59;100227.81;4480552;32;34557;-83
2022/01/15 09:01:18;;;;;;;;;;;;;;;6.30;52.92;100218.00;4466665;32;34991;-83
2022/01/15 09:03:46;;;;;;;;;;;;;;;6.48;51.96;100221.44;4479269;32;33601;-84
2022/01/15 09:06:14;;;;;;;;;;;;;;;6.16;52.71;100225.06;4481932;32;33890;-83
2022/01/15 09:08:42;;;;;;;;;;;;;;;6.34;52.69;100235.34;4481906;32;34007;-84
2022/01/15 09:11:10;;;;;;;;;;;;;;;6.02;53.19;100236.41;4481689;32;33982;-84
2022/01/15 09:13:37;;;;;;;;;;;;;;;5.79;53.97;100233.56;4471602;32;33443;-85
2022/01/15 09:16:04;;;;;;;;;;;;;;;6.72;51.80;100216.50;4469637;32;34107;-84
2022/01/15 09:18:32;;;;;;;;;;;;;;;6.49;51.75;100219.72;4468268;32;34216;-84
2022/01/15 09:20:59;;;;;;;;;;;;;;;7.02;50.08;100214.38;4468560;32;35407;-84
2022/01/15 09:23:26;;;;;;;;;;;;;;;6.92;50.34;100226.81;4475478;32;33678;-84
2022/01/15 09:25:53;;;;;;;;;;;;;;;6.77;50.43;100214.13;4481853;32;34646;-85
2022/01/15 09:31:06;;;;;;;;;;;;;;;6.07;52.18;100219.50;4483119;32;34283;-87
2022/01/15 09:33:33;;;;;;;;;;;;;;;6.70;50.67;100214.66;4483554;32;33538;-86
2022/01/15 09:36:01;;;;;;;;;;;;;;;6.33;51.24;100213.87;4483720;32;34400;-86
2022/01/15 09:38:28;;;;;;;;;;;;;;;6.58;50.47;100196.94;4483937;32;35123;-86
2022/01/15 09:40:55;;;;;;;;;;;;;;;6.97;49.24;100203.00;4482148;32;35226;-84
2022/01/15 09:43:23;;;;;;;;;;;;;;;7.05;49.14;100199.06;4475269;32;33991;-84
2022/01/15 09:45:52;;;;;;;;;;;;;;;7.11;48.37;100203.59;4476123;32;33994;-83
2022/01/15 09:48:20;;;;;;;;;;;;;;;6.79;49.31;100197.91;4467927;32;33970;-84
2022/01/15 09:50:47;;;;;;;;;;;;;;;7.03;48.70;100202.38;4470908;32;34015;-83
2022/01/15 09:53:19;;;;;;;;;;;;;;;7.23;48.29;100198.06;4477637;32;34430;-85
2022/01/15 09:55:46;;;;;;;;;;;;;;;7.03;48.82;100199.81;4482301;32;33954;-87
2022/01/15 09:58:15;;;;;;;;;;;;;;;7.61;47.18;100186.75;4482861;32;34201;-88
2022/01/15 10:00:42;;;;;;;;;;;;;;;7.54;47.35;100184.78;4480852;32;35034;-83
2022/01/15 10:03:13;;;;;;;;;;;;;;;8.26;45.34;100191.09;4479970;32;33609;-84
2022/01/15 10:05:40;;;;;;;;;;;;;;;7.36;47.48;100181.44;4476992;32;34480;-83
2022/01/15 10:08:10;;;;;;;;;;;;;;;7.23;47.19;100178.31;4482493;32;34933;-84
2022/01/15 10:10:39;;;;;;;;;;;;;;;7.86;45.87;100178.31;4478422;32;34215;-84
2022/01/15 10:13:10;;;;;;;;;;;;;;;8.04;45.77;100178.16;4471872;32;33368;-89
2022/01/15 10:15:44;;;;;;;;;;;;;;;7.91;45.65;100175.91;4469755;32;35053;-86
2022/01/15 10:18:22;;;;;;;;;;;;;;;6.76;48.23;100179.72;4483290;32;35202;-89
2022/01/15 10:20:49;;;;;;;;;;;;;;;7.56;45.84;100172.81;4477813;32;33927;-91
2022/01/15 10:23:17;;;;;;;;;;;;;;;7.15;46.95;100179.69;4468288;32;33662;-89
2022/01/15 10:25:45;;;;;;;;;;;;;;;7.34;46.63;100175.31;4475377;32;35156;-89
2022/01/15 10:28:12;;;;;;;;;;;;;;;6.82;47.52;100177.44;4483423;32;34335;-85
2022/01/15 10:30:44;;;;;;;;;;;;;;;7.04;47.30;100178.34;4483853;32;33785;-84
2022/01/15 10:33:11;;;;;;;;;;;;;;;7.04;46.80;100165.44;4483838;31;33236;-81
2022/01/15 10:35:39;;;;;;;;;;;;;;;6.96;46.31;100171.97;4483769;32;34054;-84
2022/01/15 10:38:12;;;;;;;;;;;;;;;7.07;46.32;100174.22;4483552;32;34361;-88
2022/01/15 10:40:41;;;;;;;;;;;;;;;7.35;45.84;100166.75;4483842;32;34578;-90
2022/01/15 10:43:09;;;;;;;;;;;;;;;7.34;45.21;100175.31;4482446;32;34050;-82
2022/01/15 10:45:47;;;;;;;;;;;;;;;7.82;44.37;100167.81;4478696;32;34588;-83
2022/01/15 10:48:25;;;;;;;;;;;;;;;7.77;45.13;100167.62;4477544;32;34169;-81
2022/01/15 10:50:56;;;;;;;;;;;;;;;7.35;45.87;100172.81;4468167;32;33289;-87
2022/01/15 10:53:39;;;;;;;;;;;;;;;8.00;44.08;100164.25;4466546;32;33521;-88
2022/01/15 10:56:07;;;;;;;;;;;;;;;8.56;42.33;100162.09;4471619;32;34813;-87
2022/01/15 10:58:35;;;;;;;;;;;;;;;8.51;44.10;100161.03;4478756;32;34196;-84
2022/01/15 11:01:03;;;;;;;;;;;;;;;7.89;44.68;100170.69;4469620;32;34439;-83
2022/01/15 11:03:41;;;;;;;;;;;;;;;7.69;43.96;100169.91;4481778;32;34299;-82
2022/01/15 11:06:08;;;;;;;;;;;;;;;7.53;43.37;100168.38;4481591;31;34883;-82
2022/01/15 11:08:38;;;;;;;;;;;;;;;7.57;43.01;100172.84;4481971;32;35073;-82
2022/01/15 11:11:08;;;;;;;;;;;;;;;8.28;41.57;100189.44;4483280;32;34609;-84
2022/01/15 11:13:39;;;;;;;;;;;;;;;7.73;42.85;100148.56;4481137;32;33299;-83
2022/01/15 11:16:08;;;;;;;;;;;;;;;7.00;43.48;100150.69;4483371;32;34134;-86
2022/01/15 11:18:37;;;;;;;;;;;;;;;7.00;44.14;100153.25;4483636;32;34038;-88
2022/01/15 11:21:05;;;;;;;;;;;;;;;7.61;43.16;100154.91;4480083;32;34287;-84
2022/01/15 11:23:33;;;;;;;;;;;;;;;8.20;42.13;100140.88;4481971;32;33733;-82
2022/01/15 11:26:02;;;;;;;;;;;;;;;9.08;39.91;100144.94;4482902;32;33435;-85
2022/01/15 11:28:29;;;;;;;;;;;;;;;8.29;41.68;100148.97;4482136;32;34870;-85
2022/01/15 11:31:00;;;;;;;;;;;;;;;8.91;40.69;100134.03;4482091;32;34554;-84
2022/01/15 11:33:29;;;;;;;;;;;;;;;8.71;40.76;100141.06;4477382;32;33279;-86
2022/01/15 11:35:56;;;;;;;;;;;;;;;8.75;40.59;100146.41;4480663;32;35061;-85
2022/01/15 11:38:39;;;;;;;;;;;;;;;8.24;41.40;100146.22;4481447;32;34145;-87
2022/01/15 11:41:22;;;;;;;;;;;;;;;7.79;42.34;100146.19;4481792;32;35012;-87
2022/01/15 11:43:50;;;;;;;;;;;;;;;8.33;41.88;100153.44;4484136;32;33093;-85
2022/01/15 11:46:26;;;;;;;;;;;;;;;7.64;43.52;100155.91;4481886;32;33343;-86
2022/01/15 11:49:13;;;;;;;;;;;;;;;7.18;44.49;100143.72;4482714;32;35358;-86
2022/01/15 11:51:41;;;;;;;;;;;;;;;7.52;44.10;100150.28;4469736;32;34338;-86
2022/01/15 11:54:12;;;;;;;;;;;;;;;7.93;43.47;100143.31;4474582;32;34009;-85
2022/01/15 11:56:42;;;;;;;;;;;;;;;8.34;42.82;100141.41;4469917;32;34046;-85
2022/01/15 11:59:30;;;;;;;;;;;;;;;8.03;43.27;100145.41;4480634;32;35284;-85
2022/01/15 12:02:06;;;;;;;;;;;;;;;7.38;44.77;100141.97;4469689;32;34455;-88
2022/01/15 12:04:37;;;;;;;;;;;;;;;7.73;44.35;100145.97;4480734;32;32168;-87
2022/01/15 12:07:05;;;;;;;;;;;;;;;7.73;44.56;100143.41;4481887;32;33732;-87
2022/01/15 12:09:41;;;;;;;;;;;;;;;7.68;44.95;100137.16;4482327;32;34406;-89
2022/01/15 12:12:17;;;;;;;;;;;;;;;8.68;43.26;100138.38;4482476;32;33997;-86
2022/01/15 12:14:51;;;;;;;;;;;;;;;7.82;45.16;100134.25;4480698;32;33080;-86
2022/01/15 12:17:22;;;;;;;;;;;;;;;8.86;43.32;100115.75;4481202;32;34633;-88
2022/01/15 12:19:50;;;;;;;;;;;;;;;8.25;44.31;100110.94;4481587;32;34957;-85
2022/01/15 12:22:35;;;;;;;;;;;;;;;7.84;44.88;100107.69;4480967;32;34410;-87
2022/01/15 12:25:05;;;;;;;;;;;;;;;7.63;45.16;100119.75;4482181;32;33633;-87
2022/01/15 12:27:33;;;;;;;;;;;;;;;7.44;46.04;100121.59;4482554;32;34022;-86
2022/01/15 12:30:06;;;;;;;;;;;;;;;7.64;45.49;100114.63;4482110;32;34847;-86
2022/01/15 12:32:38;;;;;;;;;;;;;;;7.78;45.71;100115.19;4482013;32;34391;-80
2022/01/15 12:35:05;;;;;;;;;;;;;;;7.17;46.25;100117.88;4481461;32;33583;-88
2022/01/15 12:37:32;;;;;;;;;;;;;;;6.96;46.78;100126.47;4481439;32;35059;-84
2022/01/15 12:40:04;;;;;;;;;;;;;;;7.21;45.41;100112.91;4480394;32;34545;-84
2022/01/15 12:42:33;;;;;;;;;;;;;;;7.08;45.63;100110.63;4475533;32;34299;-84
2022/01/15 12:45:00;;;;;;;;;;;;;;;7.87;43.63;100112.06;4480561;32;33471;-87
2022/01/15 12:47:40;;;;;;;;;;;;;;;7.38;44.79;100099.81;4474961;32;34832;-85
2022/01/15 12:50:07;;;;;;;;;;;;;;;7.85;43.51;100093.06;4480795;32;34271;-85
2022/01/15 12:52:35;;;;;;;;;;;;;;;8.45;42.52;100098.81;4481390;32;34335;-84
2022/01/15 12:55:02;;;;;;;;;;;;;;;7.72;43.07;100091.69;4482059;32;33618;-86
2022/01/15 12:57:36;;;;;;;;;;;;;;;8.15;42.59;100083.03;4477065;32;34993;-83
2022/01/15 13:00:05;;;;;;;;;;;;;;;7.90;43.50;100071.75;4468451;32;34173;-84
2022/01/15 13:02:32;;;;;;;;;;;;;;;7.84;43.01;100083.53;4482041;32;34085;-84
2022/01/15 13:04:59;;;;;;;;;;;;;;;8.16;42.67;100080.47;4481708;32;33164;-86
2022/01/15 13:07:26;;;;;;;;;;;;;;;7.79;42.59;100073.94;4481721;32;34528;-84
2022/01/15 13:09:54;;;;;;;;;;;;;;;8.57;41.61;100078.56;4480736;32;34773;-84
2022/01/15 13:12:21;;;;;;;;;;;;;;;7.22;44.35;100063.06;4480494;32;33828;-83
2022/01/15 13:14:48;;;;;;;;;;;;;;;7.74;43.01;100059.97;4478897;32;32827;-85
2022/01/15 13:17:20;;;;;;;;;;;;;;;7.92;42.96;100064.09;4481350;32;35090;-84